createdAt,value
2019-01-26T00:00:47.508Z,985.61
2019-01-26T00:01:47.522Z,985.54
2019-01-26T00:02:47.336Z,985.55
2019-01-26T00:03:47.248Z,985.64
2019-01-26T00:04:47.160Z,985.62
2019-01-26T00:05:47.073Z,985.49
2019-01-26T00:06:46.986Z,985.64
2019-01-26T00:07:46.899Z,985.57
2019-01-26T00:08:46.811Z,985.52
2019-01-26T00:09:46.725Z,985.61
2019-01-26T00:10:46.638Z,985.64
2019-01-26T00:11:46.550Z,985.52
2019-01-26T00:12:46.463Z,985.53
2019-01-26T00:13:46.376Z,985.54
2019-01-26T00:14:46.290Z,985.54
2019-01-26T00:15:46.285Z,985.46
2019-01-26T00:16:46.114Z,985.42
2019-01-26T00:17:46.027Z,985.43
2019-01-26T00:18:45.943Z,985.41
2019-01-26T00:19:45.853Z,985.40
2019-01-26T00:20:45.769Z,985.41
2019-01-26T00:21:45.681Z,985.29
2019-01-26T00:22:45.592Z,985.36
2019-01-26T00:23:45.506Z,985.37
2019-01-26T00:24:45.419Z,985.42
2019-01-26T00:25:45.330Z,985.39
2019-01-26T00:26:45.245Z,985.52
2019-01-26T00:27:45.158Z,985.45
2019-01-26T00:28:45.071Z,985.44
2019-01-26T00:29:44.985Z,985.45
2019-01-26T00:30:44.899Z,985.31
2019-01-26T00:31:44.810Z,985.24
2019-01-26T00:32:44.723Z,985.34
2019-01-26T00:33:44.638Z,985.45
2019-01-26T00:34:44.552Z,985.36
2019-01-26T00:35:44.463Z,985.17
2019-01-26T00:36:44.377Z,985.33
2019-01-26T00:37:44.291Z,985.38
2019-01-26T00:38:44.204Z,985.38
2019-01-26T00:39:45.149Z,985.28
2019-01-26T00:40:44.031Z,985.36
2019-01-26T00:41:43.943Z,985.27
2019-01-26T00:42:43.856Z,985.27
2019-01-26T00:43:43.768Z,985.28
2019-01-26T00:44:43.681Z,985.32
2019-01-26T00:45:43.594Z,985.38
2019-01-26T00:46:43.507Z,985.38
2019-01-26T00:47:43.419Z,985.38
2019-01-26T00:48:43.338Z,985.45
2019-01-26T00:49:43.246Z,985.46
2019-01-26T00:50:43.160Z,985.37
2019-01-26T00:51:43.072Z,985.34
2019-01-26T00:52:42.986Z,985.52
2019-01-26T00:53:42.899Z,985.50
2019-01-26T00:54:42.814Z,985.46
2019-01-26T00:55:42.976Z,985.38
2019-01-26T00:56:42.640Z,985.44
2019-01-26T00:57:42.554Z,985.45
2019-01-26T00:58:42.469Z,985.40
2019-01-26T00:59:42.380Z,985.37
2019-01-26T01:00:42.294Z,985.38
2019-01-26T01:01:42.204Z,985.39
2019-01-26T01:02:42.121Z,985.36
2019-01-26T01:03:42.037Z,985.35
2019-01-26T01:04:41.954Z,985.37
2019-01-26T01:05:41.859Z,985.27
2019-01-26T01:06:41.774Z,985.31
2019-01-26T01:07:41.704Z,985.32
2019-01-26T01:08:41.598Z,985.34
2019-01-26T01:09:41.571Z,985.41
2019-01-26T01:10:41.429Z,985.34
2019-01-26T01:11:41.339Z,985.36
2019-01-26T01:12:41.252Z,985.43
2019-01-26T01:13:41.165Z,985.33
2019-01-26T01:14:41.084Z,985.39
2019-01-26T01:15:40.992Z,985.29
2019-01-26T01:16:40.904Z,985.27
2019-01-26T01:17:40.818Z,985.19
2019-01-26T01:18:40.732Z,985.23
2019-01-26T01:19:40.648Z,985.28
2019-01-26T01:20:40.557Z,985.33
2019-01-26T01:21:40.517Z,985.29
2019-01-26T01:22:40.385Z,985.30
2019-01-26T01:23:40.309Z,985.32
2019-01-26T01:24:40.211Z,985.28
2019-01-26T01:25:40.124Z,985.24
2019-01-26T01:26:40.038Z,985.29
2019-01-26T01:27:39.951Z,985.22
2019-01-26T01:28:39.863Z,985.19
2019-01-26T01:29:39.778Z,985.25
2019-01-26T01:30:39.692Z,985.19
2019-01-26T01:31:39.604Z,985.18
2019-01-26T01:32:39.517Z,985.09
2019-01-26T01:33:39.432Z,985.14
2019-01-26T01:34:39.371Z,985.14
2019-01-26T01:35:39.259Z,985.08
2019-01-26T01:36:39.172Z,985.07
2019-01-26T01:37:39.085Z,985.07
2019-01-26T01:38:38.998Z,985.06
2019-01-26T01:39:38.911Z,984.98
2019-01-26T01:40:40.219Z,985.08
2019-01-26T01:41:38.738Z,984.98
2019-01-26T01:42:38.652Z,985.06
2019-01-26T01:43:38.615Z,985.02
2019-01-26T01:44:38.479Z,984.99
2019-01-26T01:45:38.393Z,985.11
2019-01-26T01:46:42.868Z,985.07
2019-01-26T01:47:38.278Z,985.01
2019-01-26T01:48:38.137Z,985.00
2019-01-26T01:49:38.047Z,984.93
2019-01-26T01:50:37.961Z,985.03
2019-01-26T01:51:37.874Z,985.07
2019-01-26T01:52:37.848Z,985.12
2019-01-26T01:53:37.702Z,985.09
2019-01-26T01:54:37.616Z,985.02
2019-01-26T01:55:37.568Z,984.99
2019-01-26T01:56:37.443Z,984.94
2019-01-26T01:57:37.361Z,985.02
2019-01-26T01:58:37.271Z,985.01
2019-01-26T01:59:37.184Z,985.02
2019-01-26T02:00:37.097Z,984.92
2019-01-26T02:01:37.010Z,984.88
2019-01-26T02:02:36.925Z,984.93
2019-01-26T02:03:36.838Z,984.96
2019-01-26T02:04:36.752Z,985.00
2019-01-26T02:05:36.670Z,984.99
2019-01-26T02:06:36.580Z,984.88
2019-01-26T02:07:36.493Z,985.01
2019-01-26T02:08:36.407Z,984.96
2019-01-26T02:09:36.322Z,984.91
2019-01-26T02:10:36.236Z,984.91
2019-01-26T02:11:36.148Z,984.87
2019-01-26T02:12:36.061Z,984.72
2019-01-26T02:13:35.975Z,984.73
2019-01-26T02:14:35.889Z,984.70
2019-01-26T02:15:35.805Z,984.77
2019-01-26T02:16:35.716Z,984.74
2019-01-26T02:17:35.629Z,984.72
2019-01-26T02:18:35.543Z,984.67
2019-01-26T02:19:35.507Z,984.78
2019-01-26T02:20:35.370Z,984.78
2019-01-26T02:21:35.287Z,984.68
2019-01-26T02:22:35.200Z,984.79
2019-01-26T02:23:35.110Z,984.81
2019-01-26T02:24:35.024Z,984.81
2019-01-26T02:25:35.038Z,984.77
2019-01-26T02:26:34.852Z,984.80
2019-01-26T02:27:34.765Z,984.75
2019-01-26T02:28:34.680Z,984.81
2019-01-26T02:29:34.593Z,984.79
2019-01-26T02:30:34.544Z,984.84
2019-01-26T02:31:34.420Z,984.72
2019-01-26T02:32:34.335Z,984.71
2019-01-26T02:33:34.248Z,984.72
2019-01-26T02:34:34.162Z,984.67
2019-01-26T02:35:34.075Z,984.63
2019-01-26T02:36:33.989Z,984.77
2019-01-26T02:37:33.903Z,984.68
2019-01-26T02:38:33.818Z,984.72
2019-01-26T02:39:33.731Z,984.65
2019-01-26T02:40:33.646Z,984.85
2019-01-26T02:41:33.560Z,984.73
2019-01-26T02:42:33.478Z,984.78
2019-01-26T02:43:33.384Z,984.61
2019-01-26T02:44:33.299Z,984.67
2019-01-26T02:45:33.213Z,984.59
2019-01-26T02:46:33.128Z,984.79
2019-01-26T02:47:33.042Z,984.60
2019-01-26T02:48:32.955Z,984.61
2019-01-26T02:49:32.871Z,984.61
2019-01-26T02:50:32.782Z,984.56
2019-01-26T02:51:32.697Z,984.62
2019-01-26T02:52:32.625Z,984.57
2019-01-26T02:53:32.522Z,984.47
2019-01-26T02:54:32.436Z,984.47
2019-01-26T02:55:32.351Z,984.55
2019-01-26T02:56:32.263Z,984.41
2019-01-26T02:57:32.177Z,984.48
2019-01-26T02:58:32.092Z,984.46
2019-01-26T02:59:32.004Z,984.49
2019-01-26T03:00:31.919Z,984.54
2019-01-26T03:01:31.832Z,984.58
2019-01-26T03:02:31.747Z,984.51
2019-01-26T03:03:31.660Z,984.48
2019-01-26T03:04:31.576Z,984.59
2019-01-26T03:05:31.485Z,984.60
2019-01-26T03:06:31.406Z,984.56
2019-01-26T03:07:31.313Z,984.63
2019-01-26T03:08:31.226Z,984.49
2019-01-26T03:09:31.141Z,984.47
2019-01-26T03:10:31.054Z,984.59
2019-01-26T03:11:30.966Z,984.52
2019-01-26T03:12:30.880Z,984.53
2019-01-26T03:13:30.794Z,984.56
2019-01-26T03:14:30.706Z,984.67
2019-01-26T03:15:30.670Z,984.54
2019-01-26T03:16:30.535Z,984.55
2019-01-26T03:17:30.448Z,984.59
2019-01-26T03:18:30.362Z,984.65
2019-01-26T03:19:30.276Z,984.56
2019-01-26T03:20:30.189Z,984.41
2019-01-26T03:21:30.104Z,984.45
2019-01-26T03:22:30.015Z,984.25
2019-01-26T03:23:29.929Z,984.43
2019-01-26T03:24:29.843Z,984.28
2019-01-26T03:25:29.757Z,984.39
2019-01-26T03:26:29.670Z,984.27
2019-01-26T03:27:29.584Z,984.18
2019-01-26T03:28:29.498Z,984.21
2019-01-26T03:29:29.412Z,984.20
2019-01-26T03:30:29.326Z,984.28
2019-01-26T03:31:29.239Z,984.31
2019-01-26T03:32:29.153Z,984.30
2019-01-26T03:33:29.075Z,984.22
2019-01-26T03:34:28.982Z,984.18
2019-01-26T03:35:28.894Z,984.22
2019-01-26T03:36:28.805Z,984.20
2019-01-26T03:37:28.723Z,984.27
2019-01-26T03:38:28.634Z,984.24
2019-01-26T03:39:28.548Z,984.27
2019-01-26T03:40:28.461Z,984.35
2019-01-26T03:41:28.376Z,984.35
2019-01-26T03:42:28.288Z,984.31
2019-01-26T03:43:28.201Z,984.26
2019-01-26T03:44:28.114Z,984.27
2019-01-26T03:45:28.029Z,984.26
2019-01-26T03:46:27.943Z,984.33
2019-01-26T03:47:27.856Z,984.21
2019-01-26T03:48:27.775Z,984.35
2019-01-26T03:49:27.688Z,984.21
2019-01-26T03:50:27.597Z,984.25
2019-01-26T03:51:27.511Z,984.38
2019-01-26T03:52:27.425Z,984.45
2019-01-26T03:53:27.339Z,984.52
2019-01-26T03:54:27.252Z,984.51
2019-01-26T03:55:27.164Z,984.50
2019-01-26T03:56:27.080Z,984.46
2019-01-26T03:57:26.994Z,984.43
2019-01-26T03:58:26.908Z,984.37
2019-01-26T03:59:26.820Z,984.42
2019-01-26T04:00:26.733Z,984.50
2019-01-26T04:01:26.647Z,984.51
2019-01-26T04:02:26.562Z,984.42
2019-01-26T04:03:26.474Z,984.56
2019-01-26T04:04:26.388Z,984.56
2019-01-26T04:05:26.303Z,984.55
2019-01-26T04:06:26.215Z,984.54
2019-01-26T04:07:26.128Z,984.56
2019-01-26T04:08:26.042Z,984.52
2019-01-26T04:09:25.956Z,984.50
2019-01-26T04:10:25.871Z,984.59
2019-01-26T04:11:25.785Z,984.58
2019-01-26T04:12:25.697Z,984.50
2019-01-26T04:13:25.612Z,984.44
2019-01-26T04:14:25.525Z,984.53
2019-01-26T04:15:25.439Z,984.51
2019-01-26T04:16:25.354Z,984.56
2019-01-26T04:17:25.267Z,984.58
2019-01-26T04:18:25.181Z,984.48
2019-01-26T04:19:25.097Z,984.33
2019-01-26T04:20:25.009Z,984.46
2019-01-26T04:21:24.922Z,984.40
2019-01-26T04:22:24.837Z,984.45
2019-01-26T04:23:24.749Z,984.43
2019-01-26T04:24:24.663Z,984.47
2019-01-26T04:25:24.576Z,984.51
2019-01-26T04:26:24.490Z,984.41
2019-01-26T04:27:24.406Z,984.36
2019-01-26T04:28:24.319Z,984.37
2019-01-26T04:29:24.233Z,984.39
2019-01-26T04:30:24.147Z,984.29
2019-01-26T04:31:24.060Z,984.08
2019-01-26T04:32:23.973Z,984.07
2019-01-26T04:33:23.889Z,984.17
2019-01-26T04:34:23.802Z,983.98
2019-01-26T04:35:23.716Z,983.94
2019-01-26T04:36:23.628Z,984.07
2019-01-26T04:37:23.545Z,983.96
2019-01-26T04:38:23.459Z,983.84
2019-01-26T04:39:23.372Z,983.95
2019-01-26T04:40:23.287Z,983.94
2019-01-26T04:41:23.201Z,983.95
2019-01-26T04:42:23.117Z,983.88
2019-01-26T04:43:23.034Z,983.95
2019-01-26T04:44:22.941Z,983.90
2019-01-26T04:45:22.866Z,983.85
2019-01-26T04:46:22.770Z,983.80
2019-01-26T04:47:30.557Z,983.78
2019-01-26T04:48:22.597Z,983.63
2019-01-26T04:49:22.511Z,983.77
2019-01-26T04:50:22.474Z,983.82
2019-01-26T04:51:22.339Z,983.81
2019-01-26T04:52:22.253Z,983.97
2019-01-26T04:53:22.167Z,983.89
2019-01-26T04:54:22.085Z,983.79
2019-01-26T04:55:21.997Z,983.97
2019-01-26T04:56:21.909Z,983.88
2019-01-26T04:57:21.823Z,984.04
2019-01-26T04:58:21.738Z,983.99
2019-01-26T04:59:21.651Z,983.89
2019-01-26T05:00:21.565Z,983.99
2019-01-26T05:01:21.482Z,984.04
2019-01-26T05:02:21.393Z,983.94
2019-01-26T05:03:21.309Z,984.04
2019-01-26T05:04:21.221Z,983.97
2019-01-26T05:05:21.138Z,984.06
2019-01-26T05:06:21.055Z,983.97
2019-01-26T05:07:20.963Z,984.01
2019-01-26T05:08:20.877Z,984.07
2019-01-26T05:09:20.794Z,984.05
2019-01-26T05:10:20.706Z,983.94
2019-01-26T05:11:20.620Z,984.03
2019-01-26T05:12:20.533Z,984.12
2019-01-26T05:13:20.447Z,984.07
2019-01-26T05:14:20.363Z,984.09
2019-01-26T05:15:20.274Z,983.99
2019-01-26T05:16:20.240Z,984.04
2019-01-26T05:17:20.105Z,984.06
2019-01-26T05:18:20.023Z,983.95
2019-01-26T05:19:19.933Z,984.12
2019-01-26T05:20:19.847Z,984.14
2019-01-26T05:21:19.762Z,984.09
2019-01-26T05:22:19.679Z,984.05
2019-01-26T05:23:19.591Z,984.05
2019-01-26T05:24:19.505Z,984.16
2019-01-26T05:25:19.420Z,984.17
2019-01-26T05:26:19.335Z,984.12
2019-01-26T05:27:19.248Z,984.07
2019-01-26T05:28:19.161Z,983.90
2019-01-26T05:29:19.077Z,984.07
2019-01-26T05:30:18.991Z,984.14
2019-01-26T05:31:18.909Z,984.16
2019-01-26T05:32:18.819Z,984.14
2019-01-26T05:33:18.734Z,984.18
2019-01-26T05:34:18.648Z,984.15
2019-01-26T05:35:18.571Z,984.11
2019-01-26T05:36:18.476Z,984.26
2019-01-26T05:37:18.392Z,984.20
2019-01-26T05:38:18.309Z,984.22
2019-01-26T05:39:18.220Z,984.28
2019-01-26T05:40:18.133Z,984.10
2019-01-26T05:41:18.048Z,984.19
2019-01-26T05:42:17.966Z,984.31
2019-01-26T05:43:18.225Z,984.20
2019-01-26T05:44:17.790Z,984.34
2019-01-26T05:45:17.705Z,984.27
2019-01-26T05:46:17.620Z,984.20
2019-01-26T05:47:17.532Z,984.17
2019-01-26T05:48:17.447Z,984.12
2019-01-26T05:49:17.360Z,984.07
2019-01-26T05:50:17.274Z,983.97
2019-01-26T05:51:17.189Z,983.92
2019-01-26T05:52:17.105Z,983.90
2019-01-26T05:53:17.017Z,983.85
2019-01-26T05:54:16.931Z,983.89
2019-01-26T05:55:16.847Z,983.94
2019-01-26T05:56:16.761Z,983.91
2019-01-26T05:57:16.680Z,983.93
2019-01-26T05:58:16.591Z,983.90
2019-01-26T05:59:16.503Z,983.99
2019-01-26T06:00:16.416Z,983.93
2019-01-26T06:01:16.332Z,983.98
2019-01-26T06:02:16.246Z,983.96
2019-01-26T06:03:16.160Z,984.02
2019-01-26T06:04:16.074Z,983.94
2019-01-26T06:05:15.989Z,983.96
2019-01-26T06:06:15.902Z,984.01
2019-01-26T06:07:15.817Z,984.00
2019-01-26T06:08:15.730Z,983.92
2019-01-26T06:09:15.645Z,983.99
2019-01-26T06:10:15.561Z,983.96
2019-01-26T06:11:15.476Z,983.84
2019-01-26T06:12:15.388Z,983.96
2019-01-26T06:13:15.303Z,984.07
2019-01-26T06:14:15.216Z,984.26
2019-01-26T06:15:15.130Z,983.96
2019-01-26T06:16:15.043Z,984.01
2019-01-26T06:17:14.957Z,983.98
2019-01-26T06:18:14.873Z,984.04
2019-01-26T06:19:14.786Z,984.02
2019-01-26T06:20:14.701Z,984.00
2019-01-26T06:21:14.615Z,984.17
2019-01-26T06:22:14.530Z,984.08
2019-01-26T06:23:14.443Z,984.02
2019-01-26T06:24:14.358Z,984.00
2019-01-26T06:25:14.276Z,984.09
2019-01-26T06:26:14.186Z,983.91
2019-01-26T06:27:14.100Z,984.11
2019-01-26T06:28:14.033Z,984.18
2019-01-26T06:29:13.930Z,984.14
2019-01-26T06:30:13.843Z,984.18
2019-01-26T06:31:13.757Z,984.12
2019-01-26T06:32:13.672Z,984.16
2019-01-26T06:33:13.585Z,984.04
2019-01-26T06:34:13.501Z,984.04
2019-01-26T06:35:13.414Z,984.17
2019-01-26T06:36:13.327Z,984.05
2019-01-26T06:37:13.245Z,984.36
2019-01-26T06:38:13.156Z,984.11
2019-01-26T06:39:13.070Z,984.12
2019-01-26T06:40:12.983Z,984.11
2019-01-26T06:41:12.900Z,984.13
2019-01-26T06:42:12.813Z,984.01
2019-01-26T06:43:12.729Z,983.85
2019-01-26T06:44:12.640Z,983.97
2019-01-26T06:45:12.554Z,984.01
2019-01-26T06:46:12.469Z,983.99
2019-01-26T06:47:12.433Z,983.90
2019-01-26T06:48:12.301Z,984.02
2019-01-26T06:49:12.212Z,984.04
2019-01-26T06:50:12.127Z,983.96
2019-01-26T06:51:12.041Z,984.04
2019-01-26T06:52:11.953Z,983.96
2019-01-26T06:53:11.868Z,984.02
2019-01-26T06:54:11.783Z,984.02
2019-01-26T06:55:11.697Z,983.96
2019-01-26T06:56:11.610Z,983.97
2019-01-26T06:57:11.526Z,983.95
2019-01-26T06:58:11.440Z,984.03
2019-01-26T06:59:11.353Z,983.92
2019-01-26T07:00:11.267Z,983.87
2019-01-26T07:01:11.184Z,983.86
2019-01-26T07:02:11.098Z,983.87
2019-01-26T07:03:11.010Z,983.99
2019-01-26T07:04:10.926Z,983.91
2019-01-26T07:05:10.838Z,983.99
2019-01-26T07:06:10.755Z,984.05
2019-01-26T07:07:10.669Z,983.95
2019-01-26T07:08:10.582Z,983.94
2019-01-26T07:09:10.496Z,983.93
2019-01-26T07:10:10.411Z,983.94
2019-01-26T07:11:10.325Z,983.95
2019-01-26T07:12:10.240Z,984.01
2019-01-26T07:13:10.154Z,984.03
2019-01-26T07:14:10.067Z,983.98
2019-01-26T07:15:09.982Z,984.07
2019-01-26T07:16:09.899Z,984.05
2019-01-26T07:17:09.811Z,984.01
2019-01-26T07:18:09.872Z,984.01
2019-01-26T07:19:09.638Z,984.04
2019-01-26T07:20:09.552Z,984.03
2019-01-26T07:21:09.467Z,984.00
2019-01-26T07:22:09.381Z,983.99
2019-01-26T07:23:09.295Z,984.04
2019-01-26T07:24:09.209Z,984.06
2019-01-26T07:25:09.128Z,983.94
2019-01-26T07:26:09.040Z,984.01
2019-01-26T07:27:08.951Z,984.05
2019-01-26T07:28:08.866Z,984.07
2019-01-26T07:29:08.788Z,984.17
2019-01-26T07:30:08.695Z,984.07
2019-01-26T07:31:08.610Z,984.16
2019-01-26T07:32:08.524Z,984.15
2019-01-26T07:33:08.439Z,984.03
2019-01-26T07:34:08.354Z,984.06
2019-01-26T07:35:08.267Z,984.09
2019-01-26T07:36:08.184Z,984.14
2019-01-26T07:37:08.096Z,984.11
2019-01-26T07:38:13.465Z,984.19
2019-01-26T07:39:07.926Z,984.21
2019-01-26T07:40:07.842Z,984.26
2019-01-26T07:41:07.753Z,984.27
2019-01-26T07:42:07.668Z,984.26
2019-01-26T07:43:07.582Z,984.28
2019-01-26T07:44:07.496Z,984.24
2019-01-26T07:45:07.412Z,984.25
2019-01-26T07:46:07.326Z,984.16
2019-01-26T07:47:07.243Z,984.29
2019-01-26T07:48:07.154Z,984.10
2019-01-26T07:49:07.070Z,984.16
2019-01-26T07:50:06.985Z,984.19
2019-01-26T07:51:06.898Z,984.15
2019-01-26T07:52:06.813Z,984.24
2019-01-26T07:53:06.735Z,984.11
2019-01-26T07:54:06.643Z,984.24
2019-01-26T07:55:06.557Z,984.19
2019-01-26T07:56:06.471Z,984.16
2019-01-26T07:57:06.386Z,984.18
2019-01-26T07:58:06.301Z,984.23
2019-01-26T07:59:06.216Z,984.22
2019-01-26T08:00:06.129Z,984.22
2019-01-26T08:01:06.048Z,984.19
2019-01-26T08:02:05.959Z,984.11
2019-01-26T08:03:05.873Z,984.00
2019-01-26T08:04:05.793Z,984.14
2019-01-26T08:05:05.703Z,984.17
2019-01-26T08:06:05.618Z,984.21
2019-01-26T08:07:05.532Z,984.18
2019-01-26T08:08:05.445Z,984.10
2019-01-26T08:09:05.362Z,984.16
2019-01-26T08:10:05.274Z,984.13
2019-01-26T08:11:05.189Z,984.13
2019-01-26T08:12:05.103Z,984.06
2019-01-26T08:13:05.018Z,984.15
2019-01-26T08:14:04.934Z,984.07
2019-01-26T08:15:04.846Z,984.07
2019-01-26T08:16:04.760Z,984.11
2019-01-26T08:17:04.676Z,984.05
2019-01-26T08:18:04.592Z,984.04
2019-01-26T08:19:04.507Z,984.06
2019-01-26T08:20:04.419Z,984.02
2019-01-26T08:21:04.333Z,984.01
2019-01-26T08:22:04.246Z,984.08
2019-01-26T08:23:04.162Z,983.90
2019-01-26T08:24:04.079Z,984.06
2019-01-26T08:25:03.992Z,984.09
2019-01-26T08:26:03.906Z,983.92
2019-01-26T08:27:03.820Z,983.84
2019-01-26T08:28:03.734Z,983.88
2019-01-26T08:29:03.650Z,983.78
2019-01-26T08:30:03.564Z,983.71
2019-01-26T08:31:03.477Z,983.89
2019-01-26T08:32:03.391Z,984.07
2019-01-26T08:33:03.307Z,983.86
2019-01-26T08:34:03.227Z,983.87
2019-01-26T08:35:03.134Z,983.73
2019-01-26T08:36:03.049Z,983.79
2019-01-26T08:37:02.965Z,983.86
2019-01-26T08:38:02.879Z,983.92
2019-01-26T08:39:02.792Z,983.89
2019-01-26T08:40:02.707Z,983.91
2019-01-26T08:41:02.621Z,984.07
2019-01-26T08:42:02.539Z,983.99
2019-01-26T08:43:02.451Z,983.99
2019-01-26T08:44:02.367Z,984.01
2019-01-26T08:45:02.282Z,984.08
2019-01-26T08:46:02.196Z,983.97
2019-01-26T08:47:02.108Z,983.97
2019-01-26T08:48:02.026Z,983.95
2019-01-26T08:49:01.943Z,983.95
2019-01-26T08:50:01.855Z,983.96
2019-01-26T08:51:01.767Z,984.09
2019-01-26T08:52:01.682Z,984.03
2019-01-26T08:53:01.599Z,984.12
2019-01-26T08:54:01.514Z,984.00
2019-01-26T08:55:01.431Z,984.09
2019-01-26T08:56:01.342Z,984.04
2019-01-26T08:57:01.256Z,984.00
2019-01-26T08:58:01.175Z,984.01
2019-01-26T08:59:01.086Z,984.00
2019-01-26T09:00:01.000Z,983.97
2019-01-26T09:01:00.915Z,983.93
2019-01-26T09:02:00.832Z,983.92
2019-01-26T09:03:00.746Z,984.09
2019-01-26T09:04:00.661Z,983.83
2019-01-26T09:05:00.575Z,983.93
2019-01-26T09:06:00.491Z,983.90
2019-01-26T09:07:00.404Z,984.00
2019-01-26T09:08:00.319Z,983.94
2019-01-26T09:09:00.235Z,983.84
2019-01-26T09:10:00.261Z,983.87
2019-01-26T09:11:00.063Z,983.83
2019-01-26T09:11:59.981Z,983.90
2019-01-26T09:12:59.895Z,983.83
2019-01-26T09:13:59.810Z,983.82
2019-01-26T09:14:59.725Z,983.82
2019-01-26T09:15:59.639Z,983.86
2019-01-26T09:16:59.554Z,983.83
2019-01-26T09:17:59.470Z,983.78
2019-01-26T09:18:59.385Z,983.74
2019-01-26T09:19:59.299Z,983.95
2019-01-26T09:20:59.214Z,983.87
2019-01-26T09:21:59.130Z,983.88
2019-01-26T09:22:59.044Z,983.86
2019-01-26T09:23:58.960Z,983.82
2019-01-26T09:24:58.874Z,983.84
2019-01-26T09:25:58.789Z,983.82
2019-01-26T09:26:58.704Z,983.79
2019-01-26T09:27:58.620Z,983.72
2019-01-26T09:28:58.537Z,983.74
2019-01-26T09:29:58.450Z,983.83
2019-01-26T09:30:58.364Z,983.76
2019-01-26T09:31:58.281Z,983.69
2019-01-26T09:32:58.195Z,983.76
2019-01-26T09:33:58.111Z,983.80
2019-01-26T09:34:58.025Z,983.83
2019-01-26T09:35:57.941Z,983.70
2019-01-26T09:36:57.856Z,983.80
2019-01-26T09:37:57.772Z,983.86
2019-01-26T09:38:57.688Z,983.91
2019-01-26T09:39:57.601Z,983.83
2019-01-26T09:40:57.518Z,983.83
2019-01-26T09:41:57.433Z,983.85
2019-01-26T09:42:57.348Z,983.91
2019-01-26T09:43:57.264Z,983.95
2019-01-26T09:44:57.179Z,983.87
2019-01-26T09:45:57.094Z,983.89
2019-01-26T09:46:57.010Z,983.94
2019-01-26T09:47:56.925Z,983.86
2019-01-26T09:48:56.840Z,983.91
2019-01-26T09:49:56.755Z,983.82
2019-01-26T09:50:56.671Z,983.81
2019-01-26T09:51:56.585Z,983.80
2019-01-26T09:52:56.503Z,983.70
2019-01-26T09:53:56.420Z,983.84
2019-01-26T09:54:56.331Z,983.83
2019-01-26T09:55:56.247Z,983.85
2019-01-26T09:56:56.162Z,983.92
2019-01-26T09:57:56.078Z,983.94
2019-01-26T09:58:55.993Z,983.92
2019-01-26T09:59:55.907Z,983.91
2019-01-26T10:00:55.824Z,983.85
2019-01-26T10:01:55.739Z,983.86
2019-01-26T10:02:55.653Z,983.88
2019-01-26T10:03:55.570Z,983.88
2019-01-26T10:04:55.486Z,983.90
2019-01-26T10:05:55.402Z,983.86
2019-01-26T10:06:55.316Z,983.80
2019-01-26T10:07:55.232Z,983.85
2019-01-26T10:08:55.147Z,983.84
2019-01-26T10:09:55.065Z,983.78
2019-01-26T10:10:55.404Z,983.73
2019-01-26T10:11:54.896Z,983.62
2019-01-26T10:12:54.811Z,983.79
2019-01-26T10:13:54.726Z,983.81
2019-01-26T10:14:54.641Z,983.85
2019-01-26T10:15:54.659Z,983.74
2019-01-26T10:16:54.477Z,983.58
2019-01-26T10:17:54.388Z,983.60
2019-01-26T10:18:54.306Z,983.68
2019-01-26T10:19:54.222Z,983.66
2019-01-26T10:20:54.137Z,983.73
2019-01-26T10:21:54.052Z,983.69
2019-01-26T10:22:53.968Z,983.67
2019-01-26T10:23:53.883Z,983.62
2019-01-26T10:24:53.800Z,983.71
2019-01-26T10:25:53.716Z,983.55
2019-01-26T10:26:53.630Z,983.60
2019-01-26T10:27:53.549Z,983.55
2019-01-26T10:28:53.463Z,983.59
2019-01-26T10:29:53.379Z,983.49
2019-01-26T10:30:53.295Z,983.54
2019-01-26T10:31:53.211Z,983.58
2019-01-26T10:32:53.127Z,983.68
2019-01-26T10:33:53.042Z,983.58
2019-01-26T10:34:52.959Z,983.51
2019-01-26T10:35:52.878Z,983.44
2019-01-26T10:36:52.792Z,983.52
2019-01-26T10:37:52.708Z,983.52
2019-01-26T10:38:52.623Z,983.47
2019-01-26T10:39:52.540Z,983.53
2019-01-26T10:40:52.457Z,983.35
2019-01-26T10:41:52.372Z,983.47
2019-01-26T10:42:52.287Z,983.35
2019-01-26T10:43:52.204Z,983.45
2019-01-26T10:44:52.122Z,983.45
2019-01-26T10:45:52.035Z,983.56
2019-01-26T10:46:51.951Z,983.66
2019-01-26T10:47:51.868Z,983.70
2019-01-26T10:48:51.785Z,983.74
2019-01-26T10:49:51.701Z,983.58
2019-01-26T10:50:51.616Z,983.61
2019-01-26T10:51:51.532Z,983.52
2019-01-26T10:52:51.449Z,983.55
2019-01-26T10:53:51.364Z,983.48
2019-01-26T10:54:51.282Z,983.53
2019-01-26T10:55:51.196Z,983.63
2019-01-26T10:56:51.114Z,983.61
2019-01-26T10:57:51.030Z,983.59
2019-01-26T10:58:50.945Z,983.52
2019-01-26T10:59:50.862Z,983.51
2019-01-26T11:00:50.782Z,983.48
2019-01-26T11:01:50.693Z,983.53
2019-01-26T11:02:50.609Z,983.39
2019-01-26T11:03:50.526Z,983.46
2019-01-26T11:04:50.444Z,983.50
2019-01-26T11:05:50.357Z,983.49
2019-01-26T11:06:50.273Z,983.54
2019-01-26T11:07:50.189Z,983.53
2019-01-26T11:08:50.109Z,983.55
2019-01-26T11:09:50.022Z,983.46
2019-01-26T11:10:49.942Z,983.47
2019-01-26T11:11:49.855Z,983.42
2019-01-26T11:12:50.419Z,983.49
2019-01-26T11:13:49.687Z,983.49
2019-01-26T11:14:49.604Z,983.47
2019-01-26T11:15:49.520Z,983.42
2019-01-26T11:16:49.436Z,983.43
2019-01-26T11:17:49.351Z,983.49
2019-01-26T11:18:49.268Z,983.46
2019-01-26T11:19:49.184Z,983.44
2019-01-26T11:20:49.101Z,983.46
2019-01-26T11:21:49.018Z,983.46
2019-01-26T11:22:48.934Z,983.49
2019-01-26T11:23:48.851Z,983.44
2019-01-26T11:24:48.775Z,983.43
2019-01-26T11:25:48.685Z,983.38
2019-01-26T11:26:49.413Z,983.38
2019-01-26T11:27:48.514Z,983.35
2019-01-26T11:28:48.445Z,983.31
2019-01-26T11:29:48.348Z,983.39
2019-01-26T11:30:48.264Z,983.37
2019-01-26T11:31:48.185Z,983.34
2019-01-26T11:32:48.096Z,983.42
2019-01-26T11:33:48.015Z,983.24
2019-01-26T11:34:47.929Z,983.36
2019-01-26T11:35:47.848Z,983.33
2019-01-26T11:36:47.761Z,983.24
2019-01-26T11:37:47.678Z,983.35
2019-01-26T11:38:47.596Z,983.31
2019-01-26T11:39:47.509Z,983.32
2019-01-26T11:40:47.424Z,983.20
2019-01-26T11:41:47.345Z,983.20
2019-01-26T11:42:47.257Z,983.18
2019-01-26T11:43:47.173Z,983.16
2019-01-26T11:44:47.592Z,983.22
2019-01-26T11:45:47.007Z,983.22
2019-01-26T11:46:46.921Z,983.12
2019-01-26T11:47:46.841Z,983.09
2019-01-26T11:48:46.756Z,983.14
2019-01-26T11:49:46.672Z,983.19
2019-01-26T11:50:46.589Z,983.14
2019-01-26T11:51:46.505Z,983.16
2019-01-26T11:52:46.420Z,983.12
2019-01-26T11:53:46.336Z,983.12
2019-01-26T11:54:46.252Z,983.15
2019-01-26T11:55:46.168Z,983.15
2019-01-26T11:56:46.084Z,983.09
2019-01-26T11:57:46.014Z,983.11
2019-01-26T11:58:45.918Z,983.12
2019-01-26T11:59:45.834Z,983.05
2019-01-26T12:00:45.754Z,983.16
2019-01-26T12:01:45.666Z,983.09
2019-01-26T12:02:45.582Z,983.16
2019-01-26T12:03:45.499Z,983.06
2019-01-26T12:04:45.415Z,983.13
2019-01-26T12:05:45.332Z,983.01
2019-01-26T12:06:45.247Z,983.05
2019-01-26T12:07:45.164Z,982.99
2019-01-26T12:08:45.081Z,982.93
2019-01-26T12:09:44.997Z,982.98
2019-01-26T12:10:44.916Z,982.83
2019-01-26T12:11:44.830Z,982.82
2019-01-26T12:12:44.745Z,982.79
2019-01-26T12:13:44.662Z,982.83
2019-01-26T12:14:44.576Z,982.77
2019-01-26T12:15:44.493Z,982.68
2019-01-26T12:16:44.411Z,982.75
2019-01-26T12:17:44.431Z,982.60
2019-01-26T12:18:44.244Z,982.69
2019-01-26T12:19:44.161Z,982.74
2019-01-26T12:20:44.076Z,982.62
2019-01-26T12:21:43.993Z,982.70
2019-01-26T12:22:43.910Z,982.70
2019-01-26T12:23:43.828Z,982.66
2019-01-26T12:24:43.745Z,982.70
2019-01-26T12:25:43.660Z,982.65
2019-01-26T12:26:43.577Z,982.68
2019-01-26T12:27:43.494Z,982.67